sensor_id;sensor_type;location;lat;lon;timestamp;P1;durP1;ratioP1;P2;durP2;ratioP2
12367;SDS011;6248;49.812;6.620;2023-02-13T00:01:34;15.93;;;12.00;;
12367;SDS011;6248;49.812;6.620;2023-02-13T00:04:02;17.93;;;12.60;;
12367;SDS011;6248;49.812;6.620;2023-02-13T00:06:30;16.60;;;11.77;;
12367;SDS011;6248;49.812;6.620;2023-02-13T00:08:57;15.47;;;11.97;;
12367;SDS011;6248;49.812;6.620;2023-02-13T00:11:26;15.07;;;11.63;;
12367;SDS011;6248;49.812;6.620;2023-02-13T00:13:53;18.33;;;13.23;;
12367;SDS011;6248;49.812;6.620;2023-02-13T00:16:21;15.57;;;11.47;;
12367;SDS011;6248;49.812;6.620;2023-02-13T00:18:48;18.83;;;13.30;;
12367;SDS011;6248;49.812;6.620;2023-02-13T00:21:16;18.07;;;12.60;;
12367;SDS011;6248;49.812;6.620;2023-02-13T00:23:43;17.90;;;13.00;;
12367;SDS011;6248;49.812;6.620;2023-02-13T00:26:11;20.07;;;14.20;;
12367;SDS011;6248;49.812;6.620;2023-02-13T00:28:40;18.70;;;12.67;;
12367;SDS011;6248;49.812;6.620;2023-02-13T00:31:09;17.80;;;12.77;;
12367;SDS011;6248;49.812;6.620;2023-02-13T00:33:37;17.03;;;12.10;;
12367;SDS011;6248;49.812;6.620;2023-02-13T00:36:05;18.53;;;13.23;;
12367;SDS011;6248;49.812;6.620;2023-02-13T00:38:32;26.27;;;16.33;;
12367;SDS011;6248;49.812;6.620;2023-02-13T00:41:00;22.23;;;14.67;;
12367;SDS011;6248;49.812;6.620;2023-02-13T00:43:28;19.87;;;13.90;;
12367;SDS011;6248;49.812;6.620;2023-02-13T00:45:57;17.27;;;13.07;;
12367;SDS011;6248;49.812;6.620;2023-02-13T00:48:24;21.00;;;14.70;;
12367;SDS011;6248;49.812;6.620;2023-02-13T00:50:52;20.37;;;13.97;;
12367;SDS011;6248;49.812;6.620;2023-02-13T00:53:20;18.07;;;13.20;;
12367;SDS011;6248;49.812;6.620;2023-02-13T00:55:48;16.80;;;12.23;;
12367;SDS011;6248;49.812;6.620;2023-02-13T00:58:15;18.97;;;13.27;;
12367;SDS011;6248;49.812;6.620;2023-02-13T01:00:43;17.70;;;12.53;;
12367;SDS011;6248;49.812;6.620;2023-02-13T01:03:13;21.17;;;13.97;;
12367;SDS011;6248;49.812;6.620;2023-02-13T01:05:41;18.93;;;13.77;;
12367;SDS011;6248;49.812;6.620;2023-02-13T01:08:09;17.03;;;12.53;;
12367;SDS011;6248;49.812;6.620;2023-02-13T01:10:37;20.17;;;13.50;;
12367;SDS011;6248;49.812;6.620;2023-02-13T01:13:05;15.90;;;11.70;;
12367;SDS011;6248;49.812;6.620;2023-02-13T01:15:32;17.43;;;12.60;;
12367;SDS011;6248;49.812;6.620;2023-02-13T01:18:00;16.53;;;12.13;;
12367;SDS011;6248;49.812;6.620;2023-02-13T01:20:30;16.20;;;12.17;;
12367;SDS011;6248;49.812;6.620;2023-02-13T01:22:57;15.40;;;11.43;;
12367;SDS011;6248;49.812;6.620;2023-02-13T01:25:25;16.30;;;12.00;;
12367;SDS011;6248;49.812;6.620;2023-02-13T01:27:52;18.77;;;13.37;;
12367;SDS011;6248;49.812;6.620;2023-02-13T01:30:20;16.60;;;12.00;;
12367;SDS011;6248;49.812;6.620;2023-02-13T01:32:47;15.77;;;11.93;;
12367;SDS011;6248;49.812;6.620;2023-02-13T01:35:15;16.47;;;11.70;;
12367;SDS011;6248;49.812;6.620;2023-02-13T01:37:44;13.73;;;10.63;;
12367;SDS011;6248;49.812;6.620;2023-02-13T01:40:12;16.10;;;11.57;;
12367;SDS011;6248;49.812;6.620;2023-02-13T01:42:41;15.13;;;11.37;;
12367;SDS011;6248;49.812;6.620;2023-02-13T01:45:18;16.30;;;11.33;;
12367;SDS011;6248;49.812;6.620;2023-02-13T01:47:47;17.07;;;11.63;;
12367;SDS011;6248;49.812;6.620;2023-02-13T01:50:15;16.63;;;11.80;;
12367;SDS011;6248;49.812;6.620;2023-02-13T01:52:46;16.20;;;11.67;;
12367;SDS011;6248;49.812;6.620;2023-02-13T01:55:15;14.43;;;10.50;;
12367;SDS011;6248;49.812;6.620;2023-02-13T01:57:43;13.70;;;11.07;;
12367;SDS011;6248;49.812;6.620;2023-02-13T02:00:13;13.87;;;10.80;;
12367;SDS011;6248;49.812;6.620;2023-02-13T02:02:42;14.43;;;10.43;;
12367;SDS011;6248;49.812;6.620;2023-02-13T02:05:10;14.53;;;10.70;;
12367;SDS011;6248;49.812;6.620;2023-02-13T02:07:38;13.90;;;10.83;;
12367;SDS011;6248;49.812;6.620;2023-02-13T02:10:10;13.97;;;10.10;;
12367;SDS011;6248;49.812;6.620;2023-02-13T02:12:41;13.63;;;10.73;;
12367;SDS011;6248;49.812;6.620;2023-02-13T02:15:09;13.63;;;10.13;;
12367;SDS011;6248;49.812;6.620;2023-02-13T02:17:38;12.70;;;10.17;;
12367;SDS011;6248;49.812;6.620;2023-02-13T02:20:11;14.53;;;10.70;;
12367;SDS011;6248;49.812;6.620;2023-02-13T02:28:12;12.93;;;9.73;;
12367;SDS011;6248;49.812;6.620;2023-02-13T02:30:51;14.03;;;10.03;;
12367;SDS011;6248;49.812;6.620;2023-02-13T02:33:27;12.13;;;9.47;;
12367;SDS011;6248;49.812;6.620;2023-02-13T02:35:59;13.87;;;10.50;;
12367;SDS011;6248;49.812;6.620;2023-02-13T02:38:33;14.87;;;10.53;;
12367;SDS011;6248;49.812;6.620;2023-02-13T02:41:04;15.03;;;10.83;;
12367;SDS011;6248;49.812;6.620;2023-02-13T02:43:38;14.33;;;10.47;;
12367;SDS011;6248;49.812;6.620;2023-02-13T02:46:07;13.43;;;10.17;;
12367;SDS011;6248;49.812;6.620;2023-02-13T02:48:41;14.87;;;10.53;;
12367;SDS011;6248;49.812;6.620;2023-02-13T02:51:29;14.97;;;10.53;;
12367;SDS011;6248;49.812;6.620;2023-02-13T02:54:00;14.23;;;10.30;;
12367;SDS011;6248;49.812;6.620;2023-02-13T02:56:49;13.43;;;9.50;;
12367;SDS011;6248;49.812;6.620;2023-02-13T02:59:17;13.70;;;10.10;;
12367;SDS011;6248;49.812;6.620;2023-02-13T03:02:11;13.23;;;9.93;;
12367;SDS011;6248;49.812;6.620;2023-02-13T03:04:58;12.67;;;9.67;;
12367;SDS011;6248;49.812;6.620;2023-02-13T03:07:44;12.67;;;9.80;;
12367;SDS011;6248;49.812;6.620;2023-02-13T03:10:24;12.93;;;9.60;;
12367;SDS011;6248;49.812;6.620;2023-02-13T03:13:17;12.10;;;9.23;;
12367;SDS011;6248;49.812;6.620;2023-02-13T03:15:56;11.67;;;9.90;;
12367;SDS011;6248;49.812;6.620;2023-02-13T03:18:41;12.40;;;9.03;;
12367;SDS011;6248;49.812;6.620;2023-02-13T03:21:30;11.57;;;9.17;;
12367;SDS011;6248;49.812;6.620;2023-02-13T03:24:19;13.63;;;9.90;;
12367;SDS011;6248;49.812;6.620;2023-02-13T03:26:51;12.37;;;9.27;;
12367;SDS011;6248;49.812;6.620;2023-02-13T03:29:27;11.63;;;8.90;;
12367;SDS011;6248;49.812;6.620;2023-02-13T03:32:16;12.43;;;9.60;;
12367;SDS011;6248;49.812;6.620;2023-02-13T03:34:45;11.90;;;8.63;;
12367;SDS011;6248;49.812;6.620;2023-02-13T03:37:34;12.50;;;9.83;;
12367;SDS011;6248;49.812;6.620;2023-02-13T03:40:21;12.17;;;9.10;;
12367;SDS011;6248;49.812;6.620;2023-02-13T03:42:51;13.30;;;9.93;;
12367;SDS011;6248;49.812;6.620;2023-02-13T03:45:20;13.17;;;9.33;;
12367;SDS011;6248;49.812;6.620;2023-02-13T03:48:11;12.70;;;9.77;;
12367;SDS011;6248;49.812;6.620;2023-02-13T03:50:44;12.73;;;9.43;;
12367;SDS011;6248;49.812;6.620;2023-02-13T03:53:13;12.00;;;9.40;;
12367;SDS011;6248;49.812;6.620;2023-02-13T03:55:42;13.10;;;9.60;;
12367;SDS011;6248;49.812;6.620;2023-02-13T03:58:28;13.93;;;10.10;;
12367;SDS011;6248;49.812;6.620;2023-02-13T04:01:15;14.63;;;10.03;;
12367;SDS011;6248;49.812;6.620;2023-02-13T04:03:44;13.80;;;10.00;;
12367;SDS011;6248;49.812;6.620;2023-02-13T04:06:13;13.33;;;10.03;;
12367;SDS011;6248;49.812;6.620;2023-02-13T04:08:43;12.77;;;9.40;;
12367;SDS011;6248;49.812;6.620;2023-02-13T04:11:12;12.70;;;9.57;;
12367;SDS011;6248;49.812;6.620;2023-02-13T04:13:41;11.27;;;8.93;;
12367;SDS011;6248;49.812;6.620;2023-02-13T04:16:10;12.90;;;9.47;;
12367;SDS011;6248;49.812;6.620;2023-02-13T04:18:39;12.60;;;9.27;;
12367;SDS011;6248;49.812;6.620;2023-02-13T04:21:07;12.17;;;9.10;;
12367;SDS011;6248;49.812;6.620;2023-02-13T04:23:35;11.37;;;9.47;;
12367;SDS011;6248;49.812;6.620;2023-02-13T04:26:05;11.40;;;8.77;;
12367;SDS011;6248;49.812;6.620;2023-02-13T04:28:32;12.63;;;9.40;;
12367;SDS011;6248;49.812;6.620;2023-02-13T04:31:00;12.50;;;9.77;;
12367;SDS011;6248;49.812;6.620;2023-02-13T04:33:27;12.77;;;9.90;;
12367;SDS011;6248;49.812;6.620;2023-02-13T04:35:55;12.77;;;9.83;;
12367;SDS011;6248;49.812;6.620;2023-02-13T04:38:22;13.00;;;9.30;;
12367;SDS011;6248;49.812;6.620;2023-02-13T04:40:50;13.83;;;9.83;;
12367;SDS011;6248;49.812;6.620;2023-02-13T04:43:19;12.70;;;9.67;;
12367;SDS011;6248;49.812;6.620;2023-02-13T04:45:47;12.70;;;9.27;;
12367;SDS011;6248;49.812;6.620;2023-02-13T04:48:14;12.00;;;9.80;;
12367;SDS011;6248;49.812;6.620;2023-02-13T04:50:42;11.97;;;9.13;;
12367;SDS011;6248;49.812;6.620;2023-02-13T04:53:09;11.77;;;9.40;;
12367;SDS011;6248;49.812;6.620;2023-02-13T04:55:36;10.60;;;8.57;;
12367;SDS011;6248;49.812;6.620;2023-02-13T04:58:04;10.50;;;8.73;;
12367;SDS011;6248;49.812;6.620;2023-02-13T05:00:33;10.97;;;8.60;;
12367;SDS011;6248;49.812;6.620;2023-02-13T05:03:03;11.17;;;8.77;;
12367;SDS011;6248;49.812;6.620;2023-02-13T05:05:30;11.00;;;8.77;;
12367;SDS011;6248;49.812;6.620;2023-02-13T05:07:58;11.60;;;8.50;;
12367;SDS011;6248;49.812;6.620;2023-02-13T05:10:25;10.80;;;8.63;;
12367;SDS011;6248;49.812;6.620;2023-02-13T05:12:53;10.30;;;8.53;;
12367;SDS011;6248;49.812;6.620;2023-02-13T05:15:21;11.30;;;8.47;;
12367;SDS011;6248;49.812;6.620;2023-02-13T05:17:50;10.47;;;8.43;;
12367;SDS011;6248;49.812;6.620;2023-02-13T05:20:17;10.23;;;8.90;;
12367;SDS011;6248;49.812;6.620;2023-02-13T05:22:45;11.43;;;9.07;;
12367;SDS011;6248;49.812;6.620;2023-02-13T05:25:31;11.80;;;9.63;;
12367;SDS011;6248;49.812;6.620;2023-02-13T05:27:58;9.47;;;8.10;;
12367;SDS011;6248;49.812;6.620;2023-02-13T05:30:26;12.10;;;9.03;;
12367;SDS011;6248;49.812;6.620;2023-02-13T05:32:55;10.53;;;8.23;;
12367;SDS011;6248;49.812;6.620;2023-02-13T05:35:23;12.60;;;9.40;;
12367;SDS011;6248;49.812;6.620;2023-02-13T05:37:50;12.43;;;9.03;;
12367;SDS011;6248;49.812;6.620;2023-02-13T05:40:18;10.77;;;8.70;;
12367;SDS011;6248;49.812;6.620;2023-02-13T05:42:45;10.33;;;8.13;;
12367;SDS011;6248;49.812;6.620;2023-02-13T05:45:12;10.73;;;8.73;;
12367;SDS011;6248;49.812;6.620;2023-02-13T05:47:40;11.23;;;8.70;;
12367;SDS011;6248;49.812;6.620;2023-02-13T05:50:09;9.70;;;7.63;;
12367;SDS011;6248;49.812;6.620;2023-02-13T05:52:37;10.03;;;7.57;;
12367;SDS011;6248;49.812;6.620;2023-02-13T05:55:05;9.03;;;7.80;;
12367;SDS011;6248;49.812;6.620;2023-02-13T05:57:33;11.27;;;7.73;;
12367;SDS011;6248;49.812;6.620;2023-02-13T06:00:01;10.77;;;8.77;;
12367;SDS011;6248;49.812;6.620;2023-02-13T06:02:28;9.17;;;7.63;;
12367;SDS011;6248;49.812;6.620;2023-02-13T06:04:56;9.27;;;7.87;;
12367;SDS011;6248;49.812;6.620;2023-02-13T06:07:25;9.57;;;7.33;;
12367;SDS011;6248;49.812;6.620;2023-02-13T06:09:53;10.90;;;8.43;;
12367;SDS011;6248;49.812;6.620;2023-02-13T06:12:22;10.53;;;8.00;;
12367;SDS011;6248;49.812;6.620;2023-02-13T06:14:49;11.20;;;8.63;;
12367;SDS011;6248;49.812;6.620;2023-02-13T06:17:17;10.40;;;8.60;;
12367;SDS011;6248;49.812;6.620;2023-02-13T06:19:44;11.07;;;8.83;;
12367;SDS011;6248;49.812;6.620;2023-02-13T06:22:12;9.77;;;8.33;;
12367;SDS011;6248;49.812;6.620;2023-02-13T06:24:41;11.73;;;9.30;;
12367;SDS011;6248;49.812;6.620;2023-02-13T06:27:08;10.10;;;8.33;;
12367;SDS011;6248;49.812;6.620;2023-02-13T06:29:35;9.67;;;8.50;;
12367;SDS011;6248;49.812;6.620;2023-02-13T06:32:03;10.13;;;8.33;;
12367;SDS011;6248;49.812;6.620;2023-02-13T06:34:30;8.93;;;7.87;;
12367;SDS011;6248;49.812;6.620;2023-02-13T06:36:57;9.20;;;7.93;;
12367;SDS011;6248;49.812;6.620;2023-02-13T06:39:25;11.17;;;8.33;;
12367;SDS011;6248;49.812;6.620;2023-02-13T06:41:54;9.47;;;8.13;;
12367;SDS011;6248;49.812;6.620;2023-02-13T06:44:22;11.93;;;9.30;;
12367;SDS011;6248;49.812;6.620;2023-02-13T06:46:49;9.77;;;8.23;;
12367;SDS011;6248;49.812;6.620;2023-02-13T06:49:17;12.27;;;9.03;;
12367;SDS011;6248;49.812;6.620;2023-02-13T06:51:44;11.63;;;9.10;;
12367;SDS011;6248;49.812;6.620;2023-02-13T06:54:12;10.73;;;8.77;;
12367;SDS011;6248;49.812;6.620;2023-02-13T06:56:39;11.33;;;9.00;;
12367;SDS011;6248;49.812;6.620;2023-02-13T06:59:08;11.73;;;9.47;;
12367;SDS011;6248;49.812;6.620;2023-02-13T07:01:36;11.70;;;9.63;;
12367;SDS011;6248;49.812;6.620;2023-02-13T07:04:03;12.07;;;9.73;;
12367;SDS011;6248;49.812;6.620;2023-02-13T07:06:30;10.07;;;8.53;;
12367;SDS011;6248;49.812;6.620;2023-02-13T07:08:58;12.07;;;9.80;;
12367;SDS011;6248;49.812;6.620;2023-02-13T07:11:27;11.27;;;9.27;;
12367;SDS011;6248;49.812;6.620;2023-02-13T07:13:54;11.13;;;9.37;;
12367;SDS011;6248;49.812;6.620;2023-02-13T07:16:23;13.03;;;10.07;;
12367;SDS011;6248;49.812;6.620;2023-02-13T07:18:51;13.00;;;10.77;;
12367;SDS011;6248;49.812;6.620;2023-02-13T07:21:18;13.47;;;9.67;;
12367;SDS011;6248;49.812;6.620;2023-02-13T07:26:49;12.37;;;9.43;;
12367;SDS011;6248;49.812;6.620;2023-02-13T07:29:17;10.80;;;9.40;;
12367;SDS011;6248;49.812;6.620;2023-02-13T07:31:46;11.77;;;9.33;;
12367;SDS011;6248;49.812;6.620;2023-02-13T07:34:13;12.33;;;10.17;;
12367;SDS011;6248;49.812;6.620;2023-02-13T07:36:40;12.03;;;9.80;;
12367;SDS011;6248;49.812;6.620;2023-02-13T07:39:08;13.13;;;10.10;;
12367;SDS011;6248;49.812;6.620;2023-02-13T07:41:35;12.33;;;9.27;;
12367;SDS011;6248;49.812;6.620;2023-02-13T07:44:03;13.33;;;10.87;;
12367;SDS011;6248;49.812;6.620;2023-02-13T07:46:30;12.80;;;9.73;;
12367;SDS011;6248;49.812;6.620;2023-02-13T07:48:59;11.90;;;10.57;;
12367;SDS011;6248;49.812;6.620;2023-02-13T07:51:27;11.80;;;10.10;;
12367;SDS011;6248;49.812;6.620;2023-02-13T07:53:54;12.80;;;10.23;;
12367;SDS011;6248;49.812;6.620;2023-02-13T07:56:21;13.80;;;10.47;;
12367;SDS011;6248;49.812;6.620;2023-02-13T07:58:49;16.07;;;11.53;;
12367;SDS011;6248;49.812;6.620;2023-02-13T08:01:16;14.07;;;10.73;;
12367;SDS011;6248;49.812;6.620;2023-02-13T08:03:46;12.50;;;10.93;;
12367;SDS011;6248;49.812;6.620;2023-02-13T08:06:17;12.63;;;9.80;;
12367;SDS011;6248;49.812;6.620;2023-02-13T08:08:44;11.50;;;10.00;;
12367;SDS011;6248;49.812;6.620;2023-02-13T08:11:18;13.83;;;11.10;;
12367;SDS011;6248;49.812;6.620;2023-02-13T08:14:05;15.03;;;10.40;;
12367;SDS011;6248;49.812;6.620;2023-02-13T08:16:33;13.33;;;10.50;;
12367;SDS011;6248;49.812;6.620;2023-02-13T08:19:00;14.17;;;10.67;;
12367;SDS011;6248;49.812;6.620;2023-02-13T08:21:29;15.43;;;11.20;;
12367;SDS011;6248;49.812;6.620;2023-02-13T08:23:59;14.70;;;10.83;;
12367;SDS011;6248;49.812;6.620;2023-02-13T08:26:27;15.07;;;11.57;;
12367;SDS011;6248;49.812;6.620;2023-02-13T08:28:59;13.50;;;10.23;;
12367;SDS011;6248;49.812;6.620;2023-02-13T08:31:27;13.43;;;10.97;;
12367;SDS011;6248;49.812;6.620;2023-02-13T08:33:55;14.10;;;10.83;;
12367;SDS011;6248;49.812;6.620;2023-02-13T08:36:22;12.03;;;10.40;;
12367;SDS011;6248;49.812;6.620;2023-02-13T08:38:51;13.13;;;10.20;;
12367;SDS011;6248;49.812;6.620;2023-02-13T08:41:19;14.03;;;11.23;;
12367;SDS011;6248;49.812;6.620;2023-02-13T08:43:47;15.03;;;11.67;;
12367;SDS011;6248;49.812;6.620;2023-02-13T08:46:15;14.03;;;10.90;;
12367;SDS011;6248;49.812;6.620;2023-02-13T08:48:42;14.10;;;10.73;;
12367;SDS011;6248;49.812;6.620;2023-02-13T08:51:10;16.33;;;11.30;;
12367;SDS011;6248;49.812;6.620;2023-02-13T08:53:38;14.70;;;11.70;;
12367;SDS011;6248;49.812;6.620;2023-02-13T08:56:08;16.47;;;12.67;;
12367;SDS011;6248;49.812;6.620;2023-02-13T08:58:35;17.67;;;13.13;;
12367;SDS011;6248;49.812;6.620;2023-02-13T09:01:03;17.10;;;13.30;;
12367;SDS011;6248;49.812;6.620;2023-02-13T09:03:31;17.83;;;13.50;;
12367;SDS011;6248;49.812;6.620;2023-02-13T09:05:58;23.00;;;15.77;;
12367;SDS011;6248;49.812;6.620;2023-02-13T09:08:26;31.93;;;18.93;;
12367;SDS011;6248;49.812;6.620;2023-02-13T09:10:54;32.93;;;19.23;;
12367;SDS011;6248;49.812;6.620;2023-02-13T09:13:23;38.17;;;21.77;;
12367;SDS011;6248;49.812;6.620;2023-02-13T09:15:51;40.10;;;21.57;;
12367;SDS011;6248;49.812;6.620;2023-02-13T09:18:19;20.40;;;14.00;;
12367;SDS011;6248;49.812;6.620;2023-02-13T09:20:46;19.83;;;13.33;;
12367;SDS011;6248;49.812;6.620;2023-02-13T09:23:14;19.93;;;13.70;;
12367;SDS011;6248;49.812;6.620;2023-02-13T09:25:42;17.67;;;13.00;;
12367;SDS011;6248;49.812;6.620;2023-02-13T09:28:09;19.23;;;13.13;;
12367;SDS011;6248;49.812;6.620;2023-02-13T09:30:38;22.93;;;15.20;;
12367;SDS011;6248;49.812;6.620;2023-02-13T09:33:08;24.20;;;15.33;;
12367;SDS011;6248;49.812;6.620;2023-02-13T09:35:36;26.30;;;16.47;;
12367;SDS011;6248;49.812;6.620;2023-02-13T09:38:05;23.63;;;15.83;;
12367;SDS011;6248;49.812;6.620;2023-02-13T09:40:34;20.07;;;13.30;;
12367;SDS011;6248;49.812;6.620;2023-02-13T09:43:04;18.97;;;13.37;;
12367;SDS011;6248;49.812;6.620;2023-02-13T09:45:32;17.63;;;13.33;;
12367;SDS011;6248;49.812;6.620;2023-02-13T09:48:02;18.33;;;12.93;;
12367;SDS011;6248;49.812;6.620;2023-02-13T09:50:30;15.83;;;12.00;;
12367;SDS011;6248;49.812;6.620;2023-02-13T09:52:59;13.50;;;11.23;;
12367;SDS011;6248;49.812;6.620;2023-02-13T09:55:28;26.00;;;17.37;;
12367;SDS011;6248;49.812;6.620;2023-02-13T09:58:02;17.63;;;12.30;;
12367;SDS011;6248;49.812;6.620;2023-02-13T10:00:33;13.73;;;11.43;;
12367;SDS011;6248;49.812;6.620;2023-02-13T10:05:49;13.30;;;10.83;;
12367;SDS011;6248;49.812;6.620;2023-02-13T10:08:19;10.97;;;9.73;;
12367;SDS011;6248;49.812;6.620;2023-02-13T10:10:50;12.50;;;10.60;;
12367;SDS011;6248;49.812;6.620;2023-02-13T10:13:22;12.10;;;10.37;;
12367;SDS011;6248;49.812;6.620;2023-02-13T10:15:56;13.17;;;9.67;;
12367;SDS011;6248;49.812;6.620;2023-02-13T10:18:27;11.03;;;9.33;;
12367;SDS011;6248;49.812;6.620;2023-02-13T10:20:59;10.40;;;9.30;;
12367;SDS011;6248;49.812;6.620;2023-02-13T10:23:30;11.23;;;9.00;;
12367;SDS011;6248;49.812;6.620;2023-02-13T10:26:00;10.80;;;9.10;;
12367;SDS011;6248;49.812;6.620;2023-02-13T10:28:29;10.97;;;9.17;;
12367;SDS011;6248;49.812;6.620;2023-02-13T10:30:59;9.67;;;8.40;;
12367;SDS011;6248;49.812;6.620;2023-02-13T10:33:29;9.77;;;8.77;;
12367;SDS011;6248;49.812;6.620;2023-02-13T10:36:00;9.87;;;8.87;;
12367;SDS011;6248;49.812;6.620;2023-02-13T10:38:29;9.93;;;8.90;;
12367;SDS011;6248;49.812;6.620;2023-02-13T10:41:02;9.23;;;8.27;;
12367;SDS011;6248;49.812;6.620;2023-02-13T10:43:32;9.30;;;8.37;;
12367;SDS011;6248;49.812;6.620;2023-02-13T10:46:07;8.60;;;7.80;;
12367;SDS011;6248;49.812;6.620;2023-02-13T10:48:45;9.90;;;8.10;;
12367;SDS011;6248;49.812;6.620;2023-02-13T10:51:17;9.47;;;8.57;;
12367;SDS011;6248;49.812;6.620;2023-02-13T10:53:49;9.23;;;8.33;;
12367;SDS011;6248;49.812;6.620;2023-02-13T10:56:24;9.00;;;8.10;;
12367;SDS011;6248;49.812;6.620;2023-02-13T10:58:55;9.53;;;7.97;;
12367;SDS011;6248;49.812;6.620;2023-02-13T11:01:26;8.10;;;7.00;;
12367;SDS011;6248;49.812;6.620;2023-02-13T11:04:02;7.97;;;7.20;;
12367;SDS011;6248;49.812;6.620;2023-02-13T11:06:31;8.70;;;7.80;;
12367;SDS011;6248;49.812;6.620;2023-02-13T11:08:59;8.00;;;7.20;;
12367;SDS011;6248;49.812;6.620;2023-02-13T11:11:27;8.27;;;7.03;;
12367;SDS011;6248;49.812;6.620;2023-02-13T11:14:06;7.67;;;6.97;;
12367;SDS011;6248;49.812;6.620;2023-02-13T11:16:38;9.20;;;7.50;;
12367;SDS011;6248;49.812;6.620;2023-02-13T11:19:12;8.27;;;7.47;;
12367;SDS011;6248;49.812;6.620;2023-02-13T11:21:43;8.67;;;7.77;;
12367;SDS011;6248;49.812;6.620;2023-02-13T11:24:16;7.87;;;7.07;;
12367;SDS011;6248;49.812;6.620;2023-02-13T11:26:48;8.07;;;7.27;;
12367;SDS011;6248;49.812;6.620;2023-02-13T11:29:17;6.50;;;5.90;;
12367;SDS011;6248;49.812;6.620;2023-02-13T11:31:46;7.37;;;6.67;;
12367;SDS011;6248;49.812;6.620;2023-02-13T11:34:27;7.70;;;6.90;;
12367;SDS011;6248;49.812;6.620;2023-02-13T11:37:13;7.10;;;6.43;;
12367;SDS011;6248;49.812;6.620;2023-02-13T11:39:41;8.65;;;7.78;;
12367;SDS011;6248;49.812;6.620;2023-02-13T11:42:11;8.20;;;7.40;;
12367;SDS011;6248;49.812;6.620;2023-02-13T11:44:40;7.55;;;6.80;;
12367;SDS011;6248;49.812;6.620;2023-02-13T11:47:07;7.72;;;6.95;;
12367;SDS011;6248;49.812;6.620;2023-02-13T11:49:35;6.95;;;6.32;;
12367;SDS011;6248;49.812;6.620;2023-02-13T11:52:04;8.20;;;7.05;;
12367;SDS011;6248;49.812;6.620;2023-02-13T11:54:34;6.97;;;6.38;;
12367;SDS011;6248;49.812;6.620;2023-02-13T11:57:03;7.15;;;6.55;;
12367;SDS011;6248;49.812;6.620;2023-02-13T11:59:42;7.80;;;7.10;;
12367;SDS011;6248;49.812;6.620;2023-02-13T12:02:14;7.25;;;6.57;;
12367;SDS011;6248;49.812;6.620;2023-02-13T12:04:42;8.15;;;7.40;;
12367;SDS011;6248;49.812;6.620;2023-02-13T12:07:18;7.80;;;7.10;;
12367;SDS011;6248;49.812;6.620;2023-02-13T12:09:49;8.48;;;7.60;;
12367;SDS011;6248;49.812;6.620;2023-02-13T12:12:18;6.82;;;6.22;;
12367;SDS011;6248;49.812;6.620;2023-02-13T12:14:53;7.55;;;6.85;;
12367;SDS011;6248;49.812;6.620;2023-02-13T12:17:39;7.38;;;6.70;;
12367;SDS011;6248;49.812;6.620;2023-02-13T12:20:11;7.50;;;6.80;;
12367;SDS011;6248;49.812;6.620;2023-02-13T12:22:41;6.85;;;6.25;;
12367;SDS011;6248;49.812;6.620;2023-02-13T12:25:22;7.30;;;6.60;;
12367;SDS011;6248;49.812;6.620;2023-02-13T12:27:55;6.95;;;6.35;;
12367;SDS011;6248;49.812;6.620;2023-02-13T12:33:13;8.13;;;6.70;;
12367;SDS011;6248;49.812;6.620;2023-02-13T12:35:48;7.40;;;6.70;;
12367;SDS011;6248;49.812;6.620;2023-02-13T12:38:23;7.35;;;6.65;;
12367;SDS011;6248;49.812;6.620;2023-02-13T12:41:06;8.18;;;6.28;;
12367;SDS011;6248;49.812;6.620;2023-02-13T12:46:26;6.40;;;5.80;;
12367;SDS011;6248;49.812;6.620;2023-02-13T12:48:59;7.50;;;6.05;;
12367;SDS011;6248;49.812;6.620;2023-02-13T12:51:31;7.38;;;6.45;;
12367;SDS011;6248;49.812;6.620;2023-02-13T12:54:09;6.90;;;6.30;;
12367;SDS011;6248;49.812;6.620;2023-02-13T12:59:31;5.88;;;5.03;;
12367;SDS011;6248;49.812;6.620;2023-02-13T13:02:23;5.70;;;5.20;;
12367;SDS011;6248;49.812;6.620;2023-02-13T13:04:55;5.72;;;5.20;;
12367;SDS011;6248;49.812;6.620;2023-02-13T13:07:31;5.60;;;5.10;;
12367;SDS011;6248;49.812;6.620;2023-02-13T13:10:13;6.00;;;5.50;;
12367;SDS011;6248;49.812;6.620;2023-02-13T13:12:47;5.35;;;4.50;;
12367;SDS011;6248;49.812;6.620;2023-02-13T13:15:21;5.38;;;4.88;;
12367;SDS011;6248;49.812;6.620;2023-02-13T13:17:55;5.10;;;4.05;;
12367;SDS011;6248;49.812;6.620;2023-02-13T13:20:36;4.32;;;3.92;;
12367;SDS011;6248;49.812;6.620;2023-02-13T13:23:10;5.22;;;4.72;;
12367;SDS011;6248;49.812;6.620;2023-02-13T13:25:40;6.13;;;5.03;;
12367;SDS011;6248;49.812;6.620;2023-02-13T13:28:10;6.03;;;4.90;;
12367;SDS011;6248;49.812;6.620;2023-02-13T13:30:41;5.13;;;4.63;;
12367;SDS011;6248;49.812;6.620;2023-02-13T13:33:10;4.82;;;4.43;;
12367;SDS011;6248;49.812;6.620;2023-02-13T13:35:40;4.57;;;4.03;;
12367;SDS011;6248;49.812;6.620;2023-02-13T13:38:11;5.45;;;4.53;;
12367;SDS011;6248;49.812;6.620;2023-02-13T13:40:42;5.45;;;4.50;;
12367;SDS011;6248;49.812;6.620;2023-02-13T13:43:15;5.05;;;4.55;;
12367;SDS011;6248;49.812;6.620;2023-02-13T13:45:46;5.55;;;4.75;;
12367;SDS011;6248;49.812;6.620;2023-02-13T13:48:17;4.40;;;4.00;;
12367;SDS011;6248;49.812;6.620;2023-02-13T13:50:46;4.75;;;3.83;;
12367;SDS011;6248;49.812;6.620;2023-02-13T13:53:15;4.07;;;3.67;;
12367;SDS011;6248;49.812;6.620;2023-02-13T13:58:34;4.20;;;3.78;;
12367;SDS011;6248;49.812;6.620;2023-02-13T14:03:49;5.53;;;4.10;;
12367;SDS011;6248;49.812;6.620;2023-02-13T14:06:18;3.78;;;3.38;;
12367;SDS011;6248;49.812;6.620;2023-02-13T14:11:35;4.43;;;4.00;;
12367;SDS011;6248;49.812;6.620;2023-02-13T14:16:45;4.28;;;3.88;;
12367;SDS011;6248;49.812;6.620;2023-02-13T14:19:24;3.95;;;3.65;;
12367;SDS011;6248;49.812;6.620;2023-02-13T14:21:52;4.20;;;3.40;;
12367;SDS011;6248;49.812;6.620;2023-02-13T14:24:20;4.13;;;3.50;;
12367;SDS011;6248;49.812;6.620;2023-02-13T14:26:49;3.92;;;3.63;;
12367;SDS011;6248;49.812;6.620;2023-02-13T14:29:25;3.92;;;3.53;;
12367;SDS011;6248;49.812;6.620;2023-02-13T14:31:58;3.70;;;3.40;;
12367;SDS011;6248;49.812;6.620;2023-02-13T14:34:28;4.03;;;3.60;;
12367;SDS011;6248;49.812;6.620;2023-02-13T14:37:12;3.63;;;3.33;;
12367;SDS011;6248;49.812;6.620;2023-02-13T14:42:27;3.45;;;3.15;;
12367;SDS011;6248;49.812;6.620;2023-02-13T14:44:55;4.60;;;3.70;;
12367;SDS011;6248;49.812;6.620;2023-02-13T14:47:26;3.95;;;3.63;;
12367;SDS011;6248;49.812;6.620;2023-02-13T14:49:56;4.05;;;3.72;;
12367;SDS011;6248;49.812;6.620;2023-02-13T14:52:25;3.90;;;3.60;;
12367;SDS011;6248;49.812;6.620;2023-02-13T14:54:54;3.95;;;3.65;;
12367;SDS011;6248;49.812;6.620;2023-02-13T14:57:25;4.05;;;3.70;;
12367;SDS011;6248;49.812;6.620;2023-02-13T14:59:54;4.65;;;4.25;;
12367;SDS011;6248;49.812;6.620;2023-02-13T15:02:22;4.40;;;4.00;;
12367;SDS011;6248;49.812;6.620;2023-02-13T15:04:52;4.85;;;4.35;;
12367;SDS011;6248;49.812;6.620;2023-02-13T15:07:30;4.75;;;4.35;;
12367;SDS011;6248;49.812;6.620;2023-02-13T15:09:59;4.78;;;4.05;;
12367;SDS011;6248;49.812;6.620;2023-02-13T15:12:28;5.43;;;4.93;;
12367;SDS011;6248;49.812;6.620;2023-02-13T15:14:56;4.40;;;4.00;;
12367;SDS011;6248;49.812;6.620;2023-02-13T15:17:25;4.50;;;4.10;;
12367;SDS011;6248;49.812;6.620;2023-02-13T15:19:55;4.72;;;4.32;;
12367;SDS011;6248;49.812;6.620;2023-02-13T15:22:29;4.68;;;4.20;;
12367;SDS011;6248;49.812;6.620;2023-02-13T15:24:57;4.25;;;3.90;;
12367;SDS011;6248;49.812;6.620;2023-02-13T15:27:26;3.88;;;3.50;;
12367;SDS011;6248;49.812;6.620;2023-02-13T15:29:55;4.28;;;3.85;;
12367;SDS011;6248;49.812;6.620;2023-02-13T15:32:26;4.35;;;3.95;;
12367;SDS011;6248;49.812;6.620;2023-02-13T15:34:53;4.43;;;4.00;;
12367;SDS011;6248;49.812;6.620;2023-02-13T15:37:21;4.03;;;3.63;;
12367;SDS011;6248;49.812;6.620;2023-02-13T15:39:50;3.90;;;3.60;;
12367;SDS011;6248;49.812;6.620;2023-02-13T15:42:18;4.00;;;3.67;;